Time;durP1;ratioP1;P1;durP2;ratioP2;P2;SDS_P1;SDS_P2;PMS_P1;PMS_P2;Temp;Humidity;BMP_temperature;BMP_pressure;BME280_temperature;BME280_humidity;BME280_pressure;Samples;Min_cycle;Max_cycle;Signal;HPM_P1;HPM_P2
2023/05/13 00:02:12;;;;;;;13.27;10.75;;;;;;;;;;5106741;28;20103;-77
2023/05/13 00:04:39;;;;;;;13.77;11.10;;;;;;;;;;5092269;27;20053;-77
2023/05/13 00:07:05;;;;;;;14.90;10.00;;;;;;;;;;5126895;27;20085;-78
2023/05/13 00:09:31;;;;;;;17.60;12.10;;;;;;;;;;5128115;28;20043;-77
2023/05/13 00:11:57;;;;;;;15.73;9.75;;;;;;;;;;5126075;28;20059;-78
2023/05/13 00:14:23;;;;;;;16.10;11.20;;;;;;;;;;5129964;27;20031;-78
2023/05/13 00:16:49;;;;;;;19.48;14.15;;;;;;;;;;5128345;28;20039;-77
2023/05/13 00:19:15;;;;;;;14.98;11.90;;;;;;;;;;5128041;28;20046;-77
2023/05/13 00:21:41;;;;;;;16.45;12.63;;;;;;;;;;5128098;28;20401;-77
2023/05/13 00:24:07;;;;;;;15.10;9.60;;;;;;;;;;5125684;28;20072;-77
2023/05/13 00:26:33;;;;;;;16.40;11.38;;;;;;;;;;5125120;28;20233;-78
2023/05/13 00:28:59;;;;;;;18.85;13.05;;;;;;;;;;5130544;28;20072;-78
2023/05/13 00:31:26;;;;;;;19.10;12.77;;;;;;;;;;5133934;28;20049;-78
2023/05/13 00:33:52;;;;;;;13.30;9.38;;;;;;;;;;5135113;28;20039;-78
2023/05/13 00:36:18;;;;;;;11.63;8.63;;;;;;;;;;5133791;28;20453;-78
2023/05/13 00:38:44;;;;;;;13.27;8.23;;;;;;;;;;5132155;28;20043;-78
2023/05/13 00:41:11;;;;;;;12.07;9.30;;;;;;;;;;5134698;28;20453;-77
2023/05/13 00:43:37;;;;;;;11.35;8.25;;;;;;;;;;5134868;28;20047;-77
2023/05/13 00:46:04;;;;;;;11.88;8.70;;;;;;;;;;5134746;28;20055;-77
2023/05/13 00:48:30;;;;;;;13.77;8.00;;;;;;;;;;5127448;28;20489;-77
2023/05/13 00:50:56;;;;;;;13.43;8.45;;;;;;;;;;5135170;27;20039;-77
2023/05/13 00:53:22;;;;;;;12.07;7.85;;;;;;;;;;5134653;28;20043;-77
2023/05/13 00:55:48;;;;;;;13.80;8.48;;;;;;;;;;5134962;28;20048;-77
2023/05/13 00:58:16;;;;;;;11.05;8.65;;;;;;;;;;5134771;28;20090;-77
2023/05/13 01:00:50;;;;;;;11.65;8.45;;;;;;;;;;5116911;27;20397;-77
2023/05/13 01:03:21;;;;;;;13.90;9.07;;;;;;;;;;5135013;27;20046;-77
2023/05/13 01:05:55;;;;;;;10.48;8.65;;;;;;;;;;5126220;28;20043;-77
2023/05/13 01:08:42;;;;;;;13.52;9.38;;;;;;;;;;5133517;28;20078;-77
2023/05/13 01:11:11;;;;;;;11.75;9.10;;;;;;;;;;5130648;28;20680;-78
2023/05/13 01:13:41;;;;;;;13.43;9.32;;;;;;;;;;5123345;27;20056;-78
2023/05/13 01:16:46;;;;;;;13.70;8.80;;;;;;;;;;5125240;28;20043;-80
2023/05/13 01:19:31;;;;;;;16.10;9.52;;;;;;;;;;5064298;28;20037;-79
2023/05/13 01:21:57;;;;;;;12.23;9.05;;;;;;;;;;5064496;28;21430;-77
2023/05/13 01:24:23;;;;;;;12.73;9.98;;;;;;;;;;5072658;28;20056;-78
2023/05/13 01:26:49;;;;;;;12.73;9.77;;;;;;;;;;5065312;28;20052;-78
2023/05/13 01:29:16;;;;;;;13.52;9.30;;;;;;;;;;5071314;28;20115;-78
2023/05/13 01:31:42;;;;;;;14.10;9.90;;;;;;;;;;5074572;28;20526;-78
2023/05/13 01:34:10;;;;;;;12.98;9.50;;;;;;;;;;5074455;28;20056;-77
2023/05/13 01:36:37;;;;;;;14.93;9.48;;;;;;;;;;5081389;28;20105;-77
2023/05/13 01:39:03;;;;;;;15.32;9.30;;;;;;;;;;5085680;28;20140;-77
2023/05/13 01:41:29;;;;;;;15.35;9.82;;;;;;;;;;5063727;28;20049;-77
2023/05/13 01:43:56;;;;;;;14.68;9.18;;;;;;;;;;5053961;28;20053;-77
2023/05/13 01:46:22;;;;;;;12.23;9.60;;;;;;;;;;5071001;28;20049;-77
2023/05/13 01:48:48;;;;;;;12.63;9.32;;;;;;;;;;5076646;27;20140;-77
2023/05/13 01:51:14;;;;;;;12.93;9.10;;;;;;;;;;5137090;27;20032;-76
2023/05/13 01:53:41;;;;;;;14.68;9.73;;;;;;;;;;5137478;27;20080;-77
2023/05/13 01:56:09;;;;;;;13.43;9.32;;;;;;;;;;5131250;27;20044;-78
2023/05/13 01:58:36;;;;;;;15.15;9.90;;;;;;;;;;5137166;27;20434;-78
2023/05/13 02:01:02;;;;;;;13.18;10.10;;;;;;;;;;5132427;27;20042;-78
2023/05/13 02:03:28;;;;;;;11.38;9.50;;;;;;;;;;5127607;27;20318;-78
2023/05/13 02:05:55;;;;;;;10.93;9.63;;;;;;;;;;5129267;27;20466;-80
2023/05/13 02:08:22;;;;;;;13.18;9.10;;;;;;;;;;5129459;27;20485;-81
2023/05/13 02:10:55;;;;;;;13.68;9.50;;;;;;;;;;5129915;27;20533;-77
2023/05/13 02:13:21;;;;;;;13.57;10.05;;;;;;;;;;5129472;27;20095;-77
2023/05/13 02:15:47;;;;;;;12.20;9.23;;;;;;;;;;5129812;27;20043;-78
2023/05/13 02:18:13;;;;;;;11.55;10.07;;;;;;;;;;5129562;27;20057;-77
2023/05/13 02:20:39;;;;;;;13.70;9.57;;;;;;;;;;5127612;27;20532;-78
2023/05/13 02:23:05;;;;;;;13.35;10.32;;;;;;;;;;5129293;27;20042;-77
2023/05/13 02:25:31;;;;;;;12.82;9.95;;;;;;;;;;5128374;27;20037;-78
2023/05/13 02:27:58;;;;;;;12.63;10.18;;;;;;;;;;5108845;27;20053;-78
2023/05/13 02:30:25;;;;;;;12.68;10.10;;;;;;;;;;5126689;27;20043;-79
2023/05/13 02:32:52;;;;;;;13.60;10.35;;;;;;;;;;5109904;27;20039;-78
2023/05/13 02:35:18;;;;;;;14.90;10.05;;;;;;;;;;5128267;27;20039;-78
2023/05/13 02:37:46;;;;;;;14.68;10.07;;;;;;;;;;5129891;27;20035;-77
2023/05/13 02:40:12;;;;;;;17.13;10.90;;;;;;;;;;5137005;27;20126;-78
2023/05/13 02:42:38;;;;;;;13.80;11.70;;;;;;;;;;5136369;27;20047;-78
2023/05/13 02:45:04;;;;;;;16.58;11.50;;;;;;;;;;5136161;27;20397;-77
2023/05/13 02:47:30;;;;;;;16.33;11.52;;;;;;;;;;5129187;27;20043;-78
2023/05/13 02:49:56;;;;;;;16.20;11.48;;;;;;;;;;5136631;27;20039;-78
2023/05/13 02:52:23;;;;;;;16.25;11.25;;;;;;;;;;5136215;27;20043;-78
2023/05/13 02:54:49;;;;;;;13.63;10.52;;;;;;;;;;5117711;27;20489;-78
2023/05/13 02:57:15;;;;;;;13.65;10.93;;;;;;;;;;5120880;27;20039;-77
2023/05/13 02:59:41;;;;;;;14.35;11.98;;;;;;;;;;5136159;27;20118;-77
2023/05/13 03:02:07;;;;;;;18.23;11.30;;;;;;;;;;5136228;27;20043;-77
2023/05/13 03:04:33;;;;;;;16.90;12.50;;;;;;;;;;5135107;27;20043;-77
2023/05/13 03:06:59;;;;;;;18.52;13.30;;;;;;;;;;5135291;27;20046;-77
2023/05/13 03:09:25;;;;;;;18.75;13.02;;;;;;;;;;5134611;27;20176;-77
2023/05/13 03:11:52;;;;;;;16.67;12.38;;;;;;;;;;5108749;27;20044;-78
2023/05/13 03:14:18;;;;;;;16.35;12.35;;;;;;;;;;5128254;27;20077;-79
2023/05/13 03:16:44;;;;;;;14.98;12.45;;;;;;;;;;5127953;27;20043;-77
2023/05/13 03:19:10;;;;;;;15.95;12.57;;;;;;;;;;5100797;27;20058;-78
2023/05/13 03:21:36;;;;;;;15.93;13.15;;;;;;;;;;5127635;27;20187;-78
2023/05/13 03:24:03;;;;;;;16.17;13.57;;;;;;;;;;5128726;27;20039;-77
2023/05/13 03:26:29;;;;;;;20.73;12.82;;;;;;;;;;5124852;27;20044;-80
2023/05/13 03:28:55;;;;;;;16.08;13.20;;;;;;;;;;5121637;27;20058;-77
2023/05/13 03:31:21;;;;;;;14.80;12.60;;;;;;;;;;5106559;27;20039;-77
2023/05/13 03:33:47;;;;;;;16.98;12.55;;;;;;;;;;5108487;27;20115;-78
2023/05/13 03:36:14;;;;;;;17.75;13.23;;;;;;;;;;5106612;27;20066;-78
2023/05/13 03:38:40;;;;;;;18.38;13.82;;;;;;;;;;5121884;27;20678;-77
2023/05/13 03:41:09;;;;;;;15.55;12.75;;;;;;;;;;5126390;27;20075;-77
2023/05/13 03:43:35;;;;;;;16.08;13.55;;;;;;;;;;5126625;27;20039;-78
2023/05/13 03:46:01;;;;;;;15.95;13.43;;;;;;;;;;5123567;27;20126;-78
2023/05/13 03:48:27;;;;;;;17.52;13.98;;;;;;;;;;5112610;27;20611;-77
2023/05/13 03:50:53;;;;;;;17.80;14.23;;;;;;;;;;5130536;27;20054;-77
2023/05/13 03:53:19;;;;;;;17.20;13.27;;;;;;;;;;5126074;27;20051;-78
2023/05/13 03:55:45;;;;;;;16.85;13.75;;;;;;;;;;5131768;27;20050;-81
2023/05/13 03:58:13;;;;;;;16.05;14.20;;;;;;;;;;5130853;27;20130;-78
2023/05/13 04:00:39;;;;;;;16.73;14.27;;;;;;;;;;5131167;27;20035;-78
2023/05/13 04:03:06;;;;;;;21.00;15.70;;;;;;;;;;5129959;27;20073;-79
2023/05/13 04:05:32;;;;;;;17.75;14.98;;;;;;;;;;5126539;27;20050;-78
2023/05/13 04:07:58;;;;;;;21.27;15.85;;;;;;;;;;5125325;27;20130;-78
2023/05/13 04:10:24;;;;;;;19.25;17.05;;;;;;;;;;5127787;27;20381;-78
2023/05/13 04:12:50;;;;;;;24.25;17.70;;;;;;;;;;5129597;27;20031;-77
2023/05/13 04:15:16;;;;;;;19.63;17.58;;;;;;;;;;5139887;28;20065;-78
2023/05/13 04:17:42;;;;;;;21.85;19.20;;;;;;;;;;5131741;28;20400;-78
2023/05/13 04:20:08;;;;;;;24.55;20.08;;;;;;;;;;5126149;28;20043;-79
2023/05/13 04:22:34;;;;;;;21.15;18.95;;;;;;;;;;5128981;28;20046;-77
2023/05/13 04:25:00;;;;;;;24.92;20.77;;;;;;;;;;5125610;28;20046;-77
2023/05/13 04:27:27;;;;;;;23.70;21.15;;;;;;;;;;5127804;28;20054;-79
2023/05/13 04:29:53;;;;;;;24.65;22.05;;;;;;;;;;5122347;28;20130;-78
2023/05/13 04:32:20;;;;;;;25.50;22.75;;;;;;;;;;5124382;28;20043;-78
2023/05/13 04:34:49;;;;;;;28.25;24.23;;;;;;;;;;5126443;28;20042;-78
2023/05/13 04:37:15;;;;;;;26.83;24.08;;;;;;;;;;5127742;28;20096;-78
2023/05/13 04:39:43;;;;;;;27.73;24.73;;;;;;;;;;5134074;28;20092;-77
2023/05/13 04:42:09;;;;;;;28.52;24.77;;;;;;;;;;5133813;28;20039;-78
2023/05/13 04:44:35;;;;;;;26.77;23.95;;;;;;;;;;5133795;28;20048;-77
2023/05/13 04:47:01;;;;;;;26.55;23.75;;;;;;;;;;5134764;28;20404;-78
2023/05/13 04:49:27;;;;;;;29.45;24.33;;;;;;;;;;5133631;28;20035;-78
2023/05/13 04:51:53;;;;;;;26.67;23.75;;;;;;;;;;5120470;28;20035;-78
2023/05/13 04:54:19;;;;;;;25.55;22.92;;;;;;;;;;5125750;27;20118;-77
2023/05/13 04:56:46;;;;;;;23.85;21.45;;;;;;;;;;5131780;27;20035;-77
2023/05/13 04:59:12;;;;;;;26.35;23.58;;;;;;;;;;5112150;27;20055;-77
2023/05/13 05:01:38;;;;;;;23.77;21.33;;;;;;;;;;5129795;27;20093;-77
2023/05/13 05:04:04;;;;;;;25.92;21.33;;;;;;;;;;5131131;27;21682;-78
2023/05/13 05:06:31;;;;;;;23.17;20.40;;;;;;;;;;5122543;27;20504;-77
2023/05/13 05:08:57;;;;;;;24.00;19.02;;;;;;;;;;5128077;27;20095;-77
2023/05/13 05:11:23;;;;;;;21.88;19.40;;;;;;;;;;5109815;27;20066;-77
2023/05/13 05:13:50;;;;;;;22.10;19.55;;;;;;;;;;5129220;27;20477;-77
2023/05/13 05:16:16;;;;;;;21.58;18.95;;;;;;;;;;5126850;27;20039;-77
2023/05/13 05:18:42;;;;;;;20.88;18.67;;;;;;;;;;5132021;27;20506;-78
2023/05/13 05:21:08;;;;;;;21.58;19.25;;;;;;;;;;5125926;27;20164;-77
2023/05/13 05:23:34;;;;;;;21.55;19.25;;;;;;;;;;5111211;27;20404;-79
2023/05/13 05:26:02;;;;;;;20.65;18.25;;;;;;;;;;5129002;27;20389;-78
2023/05/13 05:28:28;;;;;;;21.33;19.00;;;;;;;;;;5130595;27;20437;-78
2023/05/13 05:30:54;;;;;;;21.70;18.25;;;;;;;;;;5128616;27;20035;-78
2023/05/13 05:33:20;;;;;;;23.10;17.60;;;;;;;;;;5127779;27;20441;-78
2023/05/13 05:35:47;;;;;;;21.42;16.48;;;;;;;;;;5132121;27;20480;-78
2023/05/13 05:38:13;;;;;;;19.38;15.88;;;;;;;;;;5129750;27;20035;-79
2023/05/13 05:40:40;;;;;;;18.17;15.18;;;;;;;;;;5130724;27;20122;-80
2023/05/13 05:43:06;;;;;;;20.42;15.88;;;;;;;;;;5130471;27;20130;-80
2023/05/13 05:45:35;;;;;;;17.35;14.77;;;;;;;;;;5132841;27;20043;-78
2023/05/13 05:48:01;;;;;;;18.05;14.02;;;;;;;;;;5135450;27;20043;-78
2023/05/13 05:50:27;;;;;;;20.27;14.80;;;;;;;;;;5137083;27;20507;-78
2023/05/13 05:52:53;;;;;;;15.63;13.93;;;;;;;;;;5136606;27;20096;-78
2023/05/13 05:55:19;;;;;;;18.95;13.07;;;;;;;;;;5101515;27;20043;-78
2023/05/13 05:57:46;;;;;;;17.58;12.70;;;;;;;;;;5118317;27;20113;-76
2023/05/13 06:00:12;;;;;;;17.33;12.27;;;;;;;;;;5117618;27;20046;-78
2023/05/13 06:02:38;;;;;;;15.45;11.70;;;;;;;;;;5118599;27;20043;-78
2023/05/13 06:05:05;;;;;;;15.40;12.13;;;;;;;;;;5134761;27;20039;-77
2023/05/13 06:07:31;;;;;;;13.95;12.32;;;;;;;;;;5135518;27;20532;-78
2023/05/13 06:09:57;;;;;;;16.17;12.50;;;;;;;;;;5127810;27;20039;-77
2023/05/13 06:12:23;;;;;;;18.42;12.65;;;;;;;;;;5120926;27;20070;-79
2023/05/13 06:14:49;;;;;;;16.60;11.68;;;;;;;;;;5116891;27;20500;-78
2023/05/13 06:17:15;;;;;;;14.98;11.57;;;;;;;;;;5127827;27;20127;-79
2023/05/13 06:19:41;;;;;;;16.38;11.10;;;;;;;;;;5134826;27;20050;-78
2023/05/13 06:22:08;;;;;;;14.18;10.32;;;;;;;;;;5134739;27;20072;-77
2023/05/13 06:24:34;;;;;;;13.65;10.68;;;;;;;;;;5135174;27;20054;-78
2023/05/13 06:27:00;;;;;;;14.65;10.77;;;;;;;;;;5129277;27;20040;-77
2023/05/13 06:29:27;;;;;;;14.50;11.07;;;;;;;;;;5108422;28;20128;-77
2023/05/13 06:31:53;;;;;;;13.82;10.85;;;;;;;;;;5117039;27;20095;-77
2023/05/13 06:34:19;;;;;;;13.80;11.07;;;;;;;;;;5136226;27;20054;-77
2023/05/13 06:36:45;;;;;;;11.85;10.00;;;;;;;;;;5134083;27;20038;-77
2023/05/13 06:39:12;;;;;;;13.05;9.82;;;;;;;;;;5135731;27;20080;-77
2023/05/13 06:41:38;;;;;;;13.90;9.98;;;;;;;;;;5117104;27;20047;-76
2023/05/13 06:44:07;;;;;;;15.25;10.55;;;;;;;;;;5137740;27;20514;-77
2023/05/13 06:46:33;;;;;;;11.73;8.98;;;;;;;;;;5142109;27;20497;-76
2023/05/13 06:49:00;;;;;;;13.77;9.10;;;;;;;;;;5147858;27;20069;-77
2023/05/13 06:51:26;;;;;;;12.48;9.05;;;;;;;;;;5144970;27;20049;-77
2023/05/13 06:53:52;;;;;;;12.27;9.60;;;;;;;;;;5132912;27;20050;-77
2023/05/13 06:56:21;;;;;;;12.18;8.88;;;;;;;;;;5135553;27;20039;-77
2023/05/13 06:58:48;;;;;;;15.35;9.23;;;;;;;;;;5134446;27;20437;-78
2023/05/13 07:01:15;;;;;;;10.82;9.10;;;;;;;;;;5117348;27;20496;-77
2023/05/13 07:03:41;;;;;;;13.27;8.77;;;;;;;;;;5125925;27;20386;-72
2023/05/13 07:06:07;;;;;;;13.63;9.57;;;;;;;;;;5131447;27;20047;-70
2023/05/13 07:08:33;;;;;;;14.13;9.18;;;;;;;;;;5130944;27;20552;-73
2023/05/13 07:10:59;;;;;;;16.67;9.40;;;;;;;;;;5133142;27;20074;-69
2023/05/13 07:13:25;;;;;;;14.20;9.38;;;;;;;;;;5131351;27;20512;-69
2023/05/13 07:15:51;;;;;;;13.18;9.45;;;;;;;;;;5132396;27;20051;-77
2023/05/13 07:18:18;;;;;;;12.40;9.10;;;;;;;;;;5132197;27;20035;-76
2023/05/13 07:20:44;;;;;;;14.02;9.13;;;;;;;;;;5130443;27;20054;-76
2023/05/13 07:23:10;;;;;;;12.95;9.82;;;;;;;;;;5128617;27;20039;-76
2023/05/13 07:25:36;;;;;;;11.18;9.07;;;;;;;;;;5126248;27;20051;-76
2023/05/13 07:28:03;;;;;;;15.73;9.02;;;;;;;;;;5124689;27;20047;-79
2023/05/13 07:30:29;;;;;;;15.02;9.63;;;;;;;;;;5124462;27;20074;-78
2023/05/13 07:32:55;;;;;;;13.85;9.20;;;;;;;;;;5126311;27;20385;-76
2023/05/13 07:35:21;;;;;;;13.25;8.95;;;;;;;;;;5126301;27;20481;-76
2023/05/13 07:37:47;;;;;;;12.40;9.18;;;;;;;;;;5124417;27;20055;-77
2023/05/13 07:40:14;;;;;;;12.57;9.30;;;;;;;;;;5125823;27;21541;-78
2023/05/13 07:42:40;;;;;;;13.48;9.10;;;;;;;;;;5125331;27;20133;-78
2023/05/13 07:45:09;;;;;;;14.68;9.30;;;;;;;;;;5116991;27;20485;-77
2023/05/13 07:47:35;;;;;;;11.73;8.90;;;;;;;;;;5126276;27;20040;-77
2023/05/13 07:50:01;;;;;;;11.93;8.38;;;;;;;;;;5130981;27;20043;-78
2023/05/13 07:52:27;;;;;;;11.50;8.52;;;;;;;;;;5133162;27;20088;-78
2023/05/13 07:54:54;;;;;;;12.25;8.80;;;;;;;;;;5132419;27;20488;-78
2023/05/13 07:57:20;;;;;;;11.43;8.35;;;;;;;;;;5133506;27;20046;-76
2023/05/13 07:59:46;;;;;;;14.00;8.35;;;;;;;;;;5131305;27;20111;-78
2023/05/13 08:02:12;;;;;;;11.20;8.27;;;;;;;;;;5132165;27;20039;-78
2023/05/13 08:04:38;;;;;;;13.82;9.05;;;;;;;;;;5126774;27;20042;-78
2023/05/13 08:07:05;;;;;;;12.98;8.23;;;;;;;;;;5122886;27;20050;-77
2023/05/13 08:09:31;;;;;;;12.40;8.10;;;;;;;;;;5114899;28;20070;-77
2023/05/13 08:11:57;;;;;;;10.85;8.40;;;;;;;;;;5129483;27;20043;-77
2023/05/13 08:14:23;;;;;;;9.70;8.70;;;;;;;;;;5126391;27;20514;-78
2023/05/13 08:16:49;;;;;;;12.32;8.57;;;;;;;;;;5132701;28;20050;-78
2023/05/13 08:19:15;;;;;;;12.88;8.65;;;;;;;;;;5132552;28;20122;-77
2023/05/13 08:21:41;;;;;;;11.30;9.30;;;;;;;;;;5127957;28;20043;-77
2023/05/13 08:24:07;;;;;;;13.38;9.25;;;;;;;;;;5108811;28;20092;-78
2023/05/13 08:26:33;;;;;;;14.68;9.15;;;;;;;;;;5125390;28;20560;-76
2023/05/13 08:28:59;;;;;;;11.55;9.00;;;;;;;;;;5127231;27;20043;-77
2023/05/13 08:31:26;;;;;;;12.43;9.38;;;;;;;;;;5130939;27;20046;-77
2023/05/13 08:33:53;;;;;;;12.63;8.40;;;;;;;;;;5129008;27;20067;-78
2023/05/13 08:36:20;;;;;;;13.52;9.15;;;;;;;;;;5114512;27;20137;-76
2023/05/13 08:38:46;;;;;;;13.02;8.45;;;;;;;;;;5112345;27;20035;-78
2023/05/13 08:41:13;;;;;;;12.30;9.73;;;;;;;;;;5136113;27;20061;-78
2023/05/13 08:43:39;;;;;;;12.10;9.13;;;;;;;;;;5133057;27;20034;-77
2023/05/13 08:46:07;;;;;;;13.52;8.88;;;;;;;;;;5130150;27;20031;-77
2023/05/13 08:48:33;;;;;;;10.70;8.20;;;;;;;;;;5129840;27;20420;-76
2023/05/13 08:51:01;;;;;;;11.77;8.90;;;;;;;;;;5128766;27;20047;-78
2023/05/13 08:53:27;;;;;;;13.35;8.57;;;;;;;;;;5113393;27;20135;-77
2023/05/13 08:55:54;;;;;;;11.73;8.48;;;;;;;;;;5129413;27;20065;-77
2023/05/13 08:58:20;;;;;;;13.00;8.10;;;;;;;;;;5137794;27;20043;-77
2023/05/13 09:00:47;;;;;;;13.57;8.35;;;;;;;;;;5137587;27;20509;-77
2023/05/13 09:03:14;;;;;;;11.40;7.35;;;;;;;;;;5137497;27;20472;-78
2023/05/13 09:05:44;;;;;;;13.07;9.82;;;;;;;;;;5135334;27;20417;-79
2023/05/13 09:08:11;;;;;;;12.68;7.70;;;;;;;;;;5129294;27;20042;-77
2023/05/13 09:10:37;;;;;;;12.60;8.00;;;;;;;;;;5110281;27;20070;-77
2023/05/13 09:13:03;;;;;;;13.98;8.45;;;;;;;;;;5129351;27;20047;-77
2023/05/13 09:15:30;;;;;;;15.35;8.93;;;;;;;;;;5136289;27;20209;-78
2023/05/13 09:18:00;;;;;;;10.90;8.27;;;;;;;;;;5131374;27;20043;-78
2023/05/13 09:20:26;;;;;;;11.60;7.70;;;;;;;;;;5134066;27;20039;-77
2023/05/13 09:22:54;;;;;;;12.50;8.48;;;;;;;;;;5133982;27;20042;-79
2023/05/13 09:25:24;;;;;;;11.43;8.40;;;;;;;;;;5122357;27;20152;-78
2023/05/13 09:27:57;;;;;;;12.60;7.10;;;;;;;;;;5137500;27;20140;-78
2023/05/13 09:30:23;;;;;;;12.50;6.43;;;;;;;;;;5111482;27;20044;-78
2023/05/13 09:33:08;;;;;;;12.02;6.65;;;;;;;;;;5125503;27;20078;-77
2023/05/13 09:35:35;;;;;;;12.02;7.35;;;;;;;;;;5134722;27;20122;-76
2023/05/13 09:38:11;;;;;;;11.75;7.30;;;;;;;;;;5125279;27;20043;-77
2023/05/13 09:40:37;;;;;;;9.35;6.55;;;;;;;;;;5135000;27;20035;-77
2023/05/13 09:43:06;;;;;;;9.88;6.50;;;;;;;;;;5109459;28;20504;-78
2023/05/13 09:45:32;;;;;;;13.32;7.07;;;;;;;;;;5126346;27;20188;-77
2023/05/13 09:47:58;;;;;;;12.63;7.00;;;;;;;;;;5136630;27;20511;-76
2023/05/13 09:50:25;;;;;;;15.45;6.63;;;;;;;;;;5137615;27;20070;-78
2023/05/13 09:52:51;;;;;;;12.02;6.72;;;;;;;;;;5127458;27;20168;-77
2023/05/13 09:55:17;;;;;;;10.13;5.85;;;;;;;;;;5138376;27;20043;-78
2023/05/13 09:57:43;;;;;;;12.57;7.00;;;;;;;;;;5118097;27;20054;-77
2023/05/13 10:00:09;;;;;;;11.65;5.85;;;;;;;;;;5115546;27;20130;-79
2023/05/13 10:02:35;;;;;;;10.10;6.00;;;;;;;;;;5135781;27;20049;-79
2023/05/13 10:05:01;;;;;;;10.55;7.05;;;;;;;;;;5134691;27;20349;-78
2023/05/13 10:07:28;;;;;;;10.15;5.30;;;;;;;;;;5128656;27;20039;-78
2023/05/13 10:10:01;;;;;;;12.50;5.70;;;;;;;;;;5127632;27;20088;-77
2023/05/13 10:12:28;;;;;;;9.65;5.25;;;;;;;;;;5131325;27;20062;-79
2023/05/13 10:14:54;;;;;;;7.55;5.13;;;;;;;;;;5135635;27;20047;-77
2023/05/13 10:17:22;;;;;;;9.43;5.15;;;;;;;;;;5115306;27;20047;-78
2023/05/13 10:19:52;;;;;;;10.05;5.72;;;;;;;;;;5125133;27;20408;-78
2023/05/13 10:22:28;;;;;;;13.07;5.07;;;;;;;;;;5114894;28;20031;-78
2023/05/13 10:24:58;;;;;;;11.00;5.25;;;;;;;;;;5134118;27;20039;-77
2023/05/13 10:27:28;;;;;;;8.85;4.80;;;;;;;;;;5121699;27;20082;-78
2023/05/13 10:29:55;;;;;;;9.10;5.10;;;;;;;;;;5114824;28;20062;-78
2023/05/13 10:32:25;;;;;;;8.43;4.82;;;;;;;;;;5114491;28;20046;-78
2023/05/13 10:34:57;;;;;;;10.50;4.65;;;;;;;;;;5126641;27;20437;-78
2023/05/13 10:37:30;;;;;;;10.10;5.00;;;;;;;;;;5135514;27;20058;-78
2023/05/13 10:40:05;;;;;;;10.27;4.40;;;;;;;;;;5135431;27;20069;-78
2023/05/13 10:42:41;;;;;;;8.48;4.15;;;;;;;;;;5135256;27;20043;-77
2023/05/13 10:45:08;;;;;;;8.75;4.03;;;;;;;;;;5134983;27;20404;-77
2023/05/13 10:47:35;;;;;;;9.13;4.20;;;;;;;;;;5134774;27;20035;-77
2023/05/13 10:50:04;;;;;;;9.77;4.13;;;;;;;;;;5128425;27;20523;-77
2023/05/13 10:52:46;;;;;;;10.55;5.13;;;;;;;;;;5129761;27;20092;-78
2023/05/13 10:55:16;;;;;;;11.18;4.82;;;;;;;;;;5134880;27;20043;-78
2023/05/13 10:58:02;;;;;;;9.13;4.43;;;;;;;;;;5134479;27;20404;-78
2023/05/13 11:00:32;;;;;;;12.13;4.05;;;;;;;;;;5134502;27;20114;-78
2023/05/13 11:03:08;;;;;;;10.40;3.90;;;;;;;;;;5128062;27;20043;-77
2023/05/13 11:05:34;;;;;;;8.18;4.13;;;;;;;;;;5109633;27;20062;-76
2023/05/13 11:08:00;;;;;;;9.38;4.22;;;;;;;;;;5135273;27;20429;-78
2023/05/13 11:10:30;;;;;;;11.07;4.57;;;;;;;;;;5134849;27;20045;-76
2023/05/13 11:13:07;;;;;;;9.05;3.53;;;;;;;;;;5122494;27;20054;-77
2023/05/13 11:15:50;;;;;;;11.18;4.20;;;;;;;;;;5133628;27;20471;-77
2023/05/13 11:18:16;;;;;;;7.88;4.13;;;;;;;;;;5128647;27;20098;-78
2023/05/13 11:21:05;;;;;;;9.80;3.70;;;;;;;;;;5092069;27;20449;-80
2023/05/13 11:23:50;;;;;;;11.30;4.53;;;;;;;;;;5117385;27;20087;-77
2023/05/13 11:26:17;;;;;;;8.70;3.70;;;;;;;;;;5127834;27;20454;-79
2023/05/13 11:28:54;;;;;;;10.15;3.58;;;;;;;;;;5116812;27;20047;-78
2023/05/13 11:31:21;;;;;;;8.80;3.28;;;;;;;;;;5134778;27;20039;-77
2023/05/13 11:34:08;;;;;;;10.13;3.30;;;;;;;;;;5131240;27;20071;-77
2023/05/13 11:36:34;;;;;;;10.82;3.55;;;;;;;;;;5101619;27;20039;-78
2023/05/13 11:39:06;;;;;;;10.27;3.10;;;;;;;;;;5128815;27;20039;-78
2023/05/13 11:41:33;;;;;;;7.35;3.10;;;;;;;;;;5134340;27;20043;-78
2023/05/13 11:44:02;;;;;;;7.68;3.53;;;;;;;;;;5134883;27;20123;-78
2023/05/13 11:46:28;;;;;;;8.05;3.13;;;;;;;;;;5134217;27;20071;-78
2023/05/13 11:48:54;;;;;;;8.50;2.90;;;;;;;;;;5120798;27;20054;-78
2023/05/13 11:51:20;;;;;;;6.43;3.13;;;;;;;;;;5130700;27;20039;-79
2023/05/13 11:53:47;;;;;;;9.32;3.03;;;;;;;;;;5096375;28;20054;-78
2023/05/13 11:56:13;;;;;;;9.30;3.50;;;;;;;;;;5129979;27;20050;-78
2023/05/13 11:58:39;;;;;;;8.57;2.95;;;;;;;;;;5114668;27;20047;-78
2023/05/13 12:01:06;;;;;;;6.80;2.85;;;;;;;;;;5134481;27;20092;-78
2023/05/13 12:03:32;;;;;;;7.70;3.20;;;;;;;;;;5135687;27;20044;-79
2023/05/13 12:06:02;;;;;;;8.88;3.00;;;;;;;;;;5136327;27;20175;-78
2023/05/13 12:08:28;;;;;;;8.55;2.83;;;;;;;;;;5133111;27;20043;-71
2023/05/13 12:10:55;;;;;;;6.55;2.72;;;;;;;;;;5129036;27;20070;-71
2023/05/13 12:13:22;;;;;;;7.88;2.70;;;;;;;;;;5130437;27;20063;-76
2023/05/13 12:15:48;;;;;;;7.18;2.65;;;;;;;;;;5134873;28;20058;-79
2023/05/13 12:18:14;;;;;;;7.30;3.13;;;;;;;;;;5134708;28;20090;-76
2023/05/13 12:20:41;;;;;;;7.03;2.85;;;;;;;;;;5132589;28;20039;-72
2023/05/13 12:23:10;;;;;;;8.00;2.95;;;;;;;;;;5130632;28;20492;-72
2023/05/13 12:25:37;;;;;;;10.30;2.95;;;;;;;;;;5132240;28;20084;-71
2023/05/13 12:28:09;;;;;;;6.70;2.70;;;;;;;;;;5132728;28;20078;-72
2023/05/13 12:30:36;;;;;;;8.55;3.17;;;;;;;;;;5132485;27;20044;-73
2023/05/13 12:33:03;;;;;;;9.02;2.70;;;;;;;;;;5114457;28;20035;-72
2023/05/13 12:35:30;;;;;;;10.32;2.60;;;;;;;;;;5126664;28;20047;-73
2023/05/13 12:38:05;;;;;;;11.60;3.00;;;;;;;;;;5119519;28;20074;-73
2023/05/13 12:40:31;;;;;;;6.88;2.42;;;;;;;;;;5130238;28;20497;-72
2023/05/13 12:42:58;;;;;;;8.63;2.50;;;;;;;;;;5130951;28;20576;-72
2023/05/13 12:45:28;;;;;;;8.35;2.78;;;;;;;;;;5132491;28;20043;-72
2023/05/13 12:47:55;;;;;;;6.15;2.42;;;;;;;;;;5112441;28;20405;-73
2023/05/13 12:50:21;;;;;;;5.65;2.50;;;;;;;;;;5120737;28;20043;-73
2023/05/13 12:52:47;;;;;;;7.35;2.78;;;;;;;;;;5132919;28;20051;-72
2023/05/13 12:55:13;;;;;;;6.93;2.55;;;;;;;;;;5128606;28;20050;-73
2023/05/13 12:57:43;;;;;;;7.35;2.33;;;;;;;;;;5132315;28;20043;-73
2023/05/13 13:00:10;;;;;;;6.68;2.75;;;;;;;;;;5133491;28;20043;-72
2023/05/13 13:02:36;;;;;;;6.07;2.33;;;;;;;;;;5129042;28;20036;-73
2023/05/13 13:05:03;;;;;;;4.75;2.38;;;;;;;;;;5131494;28;20043;-73
2023/05/13 13:07:29;;;;;;;8.63;2.40;;;;;;;;;;5126154;28;20061;-72
2023/05/13 13:09:56;;;;;;;7.82;2.58;;;;;;;;;;5132298;28;20518;-72
2023/05/13 13:12:22;;;;;;;8.15;3.03;;;;;;;;;;5121659;28;20047;-72
2023/05/13 13:14:48;;;;;;;9.88;2.50;;;;;;;;;;5128239;27;20039;-73
2023/05/13 13:17:14;;;;;;;8.57;2.60;;;;;;;;;;5123862;27;20078;-73
2023/05/13 13:19:40;;;;;;;8.63;2.70;;;;;;;;;;5124934;27;20067;-74
2023/05/13 13:22:06;;;;;;;8.18;2.40;;;;;;;;;;5122614;27;20043;-74
2023/05/13 13:24:32;;;;;;;10.38;2.60;;;;;;;;;;5136549;27;20082;-73
2023/05/13 13:26:58;;;;;;;8.75;2.63;;;;;;;;;;5136324;27;20039;-73
2023/05/13 13:29:24;;;;;;;8.35;2.63;;;;;;;;;;5136041;27;20039;-73
2023/05/13 13:31:51;;;;;;;7.47;2.55;;;;;;;;;;5134648;27;20035;-73
2023/05/13 13:34:17;;;;;;;6.43;2.45;;;;;;;;;;5135961;27;20047;-73
2023/05/13 13:36:43;;;;;;;11.10;2.20;;;;;;;;;;5123185;27;20051;-73
2023/05/13 13:39:09;;;;;;;9.73;2.20;;;;;;;;;;5132875;27;20039;-73
2023/05/13 13:41:35;;;;;;;7.18;2.47;;;;;;;;;;5124581;27;20035;-74
2023/05/13 13:44:01;;;;;;;5.50;2.40;;;;;;;;;;5124257;27;20039;-73
2023/05/13 13:46:27;;;;;;;5.25;2.28;;;;;;;;;;5114080;27;20455;-73
2023/05/13 13:48:53;;;;;;;8.50;2.20;;;;;;;;;;5125055;27;20092;-74
2023/05/13 13:51:19;;;;;;;5.47;2.20;;;;;;;;;;5135898;27;20043;-73
2023/05/13 13:53:45;;;;;;;5.47;2.20;;;;;;;;;;5136329;27;20047;-73
2023/05/13 13:56:11;;;;;;;7.72;2.60;;;;;;;;;;5136503;27;20036;-71
2023/05/13 13:58:37;;;;;;;6.25;2.40;;;;;;;;;;5116707;27;20039;-72
2023/05/13 14:01:03;;;;;;;7.03;2.63;;;;;;;;;;5131160;27;20035;-72
2023/05/13 14:03:29;;;;;;;10.32;3.13;;;;;;;;;;5132901;27;20043;-72
2023/05/13 14:05:55;;;;;;;8.57;3.30;;;;;;;;;;5136141;27;20409;-72
2023/05/13 14:08:21;;;;;;;9.00;3.10;;;;;;;;;;5136152;27;20043;-73
2023/05/13 14:10:47;;;;;;;10.02;2.85;;;;;;;;;;5135872;27;20124;-73
2023/05/13 14:13:13;;;;;;;9.43;2.85;;;;;;;;;;5132226;27;20180;-73
2023/05/13 14:15:39;;;;;;;8.35;2.70;;;;;;;;;;5134389;27;20118;-73
2023/05/13 14:18:07;;;;;;;7.53;3.03;;;;;;;;;;5135707;27;20043;-73
2023/05/13 14:20:34;;;;;;;8.32;3.05;;;;;;;;;;5117148;27;20122;-73
2023/05/13 14:23:00;;;;;;;10.15;3.75;;;;;;;;;;5136007;27;20039;-73
2023/05/13 14:25:26;;;;;;;7.40;3.17;;;;;;;;;;5133072;27;20043;-73
2023/05/13 14:27:52;;;;;;;7.00;3.10;;;;;;;;;;5133102;27;20103;-74
2023/05/13 14:30:18;;;;;;;6.50;3.00;;;;;;;;;;5133703;27;20035;-73